Map

Track Data

SID SEASON NUMBER BASIN SUBBASIN NAME ISO_TIME NATURE LAT LON WMO_WIND WMO_PRES WMO_AGENCY TRACK_TYPE DIST2LAND LANDFALL IFLAG USA_AGENCY USA_ATCF_ID USA_LAT USA_LON USA_RECORD USA_STATUS USA_WIND USA_PRES USA_SSHS USA_R34_NE USA_R34_SE USA_R34_SW USA_R34_NW USA_R50_NE USA_R50_SE USA_R50_SW USA_R50_NW USA_R64_NE USA_R64_SE USA_R64_SW USA_R64_NW USA_POCI USA_ROCI USA_RMW USA_EYE TOKYO_LAT TOKYO_LON TOKYO_GRADE TOKYO_WIND TOKYO_PRES TOKYO_R50_DIR TOKYO_R50_LONG TOKYO_R50_SHORT TOKYO_R30_DIR TOKYO_R30_LONG TOKYO_R30_SHORT TOKYO_LAND CMA_LAT CMA_LON CMA_CAT CMA_WIND CMA_PRES HKO_LAT HKO_LON HKO_CAT HKO_WIND HKO_PRES NEWDELHI_LAT NEWDELHI_LON NEWDELHI_GRADE NEWDELHI_WIND NEWDELHI_PRES NEWDELHI_CI NEWDELHI_DP NEWDELHI_POCI REUNION_LAT REUNION_LON REUNION_TYPE REUNION_WIND REUNION_PRES REUNION_TNUM REUNION_CI REUNION_RMW REUNION_R34_NE REUNION_R34_SE REUNION_R34_SW REUNION_R34_NW REUNION_R50_NE REUNION_R50_SE REUNION_R50_SW REUNION_R50_NW REUNION_R64_NE REUNION_R64_SE REUNION_R64_SW REUNION_R64_NW BOM_LAT BOM_LON BOM_TYPE BOM_WIND BOM_PRES BOM_TNUM BOM_CI BOM_RMW BOM_R34_NE BOM_R34_SE BOM_R34_SW BOM_R34_NW BOM_R50_NE BOM_R50_SE BOM_R50_SW BOM_R50_NW BOM_R64_NE BOM_R64_SE BOM_R64_SW BOM_R64_NW BOM_ROCI BOM_POCI BOM_EYE BOM_POS_METHOD BOM_PRES_METHOD NADI_LAT NADI_LON NADI_CAT NADI_WIND NADI_PRES WELLINGTON_LAT WELLINGTON_LON WELLINGTON_WIND WELLINGTON_PRES DS824_LAT DS824_LON DS824_STAGE DS824_WIND DS824_PRES TD9636_LAT TD9636_LON TD9636_STAGE TD9636_WIND TD9636_PRES TD9635_LAT TD9635_LON TD9635_WIND TD9635_PRES TD9635_ROCI NEUMANN_LAT NEUMANN_LON NEUMANN_CLASS NEUMANN_WIND NEUMANN_PRES MLC_LAT MLC_LON MLC_CLASS MLC_WIND MLC_PRES USA_GUST BOM_GUST BOM_GUST_PER REUNION_GUST REUNION_GUST_PER USA_SEAHGT USA_SEARAD_NE USA_SEARAD_SE USA_SEARAD_SW USA_SEARAD_NW STORM_SPEED STORM_DIR
1983187N12259 1983 30 EP MM DALILIA 1983-07-05 18:00:00 TS 12.1000 -101.400 30 hurdat_epa main 546 543 O_________O___ hurdat_epa EP041983 12.1000 -101.400 TD 30 -1 12.1000 -101.400 1 30 10 289
1983187N12259 1983 30 EP MM DALILIA 1983-07-05 21:00:00 TS 12.2514 -101.860 main 546 546 P_________P___ EP041983 12.2527 -101.862 TD 30 -1 12.2476 -101.852 1 30 9 289
1983187N12259 1983 30 EP MM DALILIA 1983-07-06 00:00:00 TS 12.4000 -102.300 30 hurdat_epa main 556 556 O_________O___ hurdat_epa EP041983 12.4000 -102.300 TD 30 -1 12.4000 -102.300 1 30 9 290
1983187N12259 1983 30 EP MM DALILIA 1983-07-06 03:00:00 TS 12.5472 -102.710 main 564 553 P_________P___ EP041983 12.5424 -102.700 TD 30 -1 12.5616 -102.738 1 30 9 291
1983187N12259 1983 30 EP MM DALILIA 1983-07-06 06:00:00 TS 12.7082 -103.117 30 hurdat_epa main 557 551 O_________P___ hurdat_epa EP041983 12.7000 -103.100 TD 30 -1 12.7327 -103.167 1 30 9 293
1983187N12259 1983 30 EP MM DALILIA 1983-07-06 09:00:00 TS 12.8975 -103.565 main 560 556 P_________P___ EP041983 12.8925 -103.557 TD 30 -1 12.9125 -103.588 1 30 9 294
1983187N12259 1983 30 EP MM DALILIA 1983-07-06 12:00:00 TS 13.1000 -104.000 30 hurdat_epa main 563 556 O_________O___ hurdat_epa EP041983 13.1000 -104.000 TD 30 -1 13.1000 -104.000 1 30 9 297
1983187N12259 1983 30 EP MM DALILIA 1983-07-06 15:00:00 TS 13.2919 -104.363 main 560 549 P_________P___ EP041983 13.2998 -104.350 TD 32 -1 13.2681 -104.400 1 31 8 299
1983187N12259 1983 30 EP MM DALILIA 1983-07-06 18:00:00 TS 13.4868 -104.723 35 hurdat_epa main 549 542 O_________P___ hurdat_epa EP041983 13.5000 -104.700 TS 35 0 13.4470 -104.793 1 32 9 297
1983187N12259 1983 30 EP MM DALILIA 1983-07-06 21:00:00 TS 13.6769 -105.149 main 542 536 P_________P___ EP041983 13.6850 -105.135 TS 35 0 13.6525 -105.190 1 33 9 296
1983187N12259 1983 30 EP MM DALILIA 1983-07-07 00:00:00 TS 13.9000 -105.600 35 hurdat_epa main 541 530 O_________O___ hurdat_epa EP041983 13.9000 -105.600 TS 35 0 13.9000 -105.600 2 35 10 300
1983187N12259 1983 30 EP MM DALILIA 1983-07-07 03:00:00 TS 14.1771 -106.047 main 530 525 P_________P___ EP041983 14.1699 -106.050 TS 37 0 14.1986 -106.036 2 37 11 305
1983187N12259 1983 30 EP MM DALILIA 1983-07-07 06:00:00 TS 14.5100 -106.496 40 hurdat_epa main 532 525 O_________P___ hurdat_epa EP041983 14.5000 -106.500 TS 40 0 14.5399 -106.485 2 40 11 309
1983187N12259 1983 30 EP MM DALILIA 1983-07-07 09:00:00 TS 14.8915 -106.954 main 532 516 P_________P___ EP041983 14.8850 -106.958 TS 42 0 14.9111 -106.942 2 42 12 312
1983187N12259 1983 30 EP MM DALILIA 1983-07-07 12:00:00 TS 15.3000 -107.400 45 hurdat_epa main 516 504 O_________O___ hurdat_epa EP041983 15.3000 -107.400 TS 45 0 15.3000 -107.400 2 45 11 314
1983187N12259 1983 30 EP MM DALILIA 1983-07-07 15:00:00 TS 15.6921 -107.802 main 504 500 P_________P___ EP041983 15.6998 -107.793 TS 50 0 15.6688 -107.831 2 48 11 315
1983187N12259 1983 30 EP MM DALILIA 1983-07-07 18:00:00 TS 16.0885 -108.216 55 hurdat_epa main 500 499 O_________P___ hurdat_epa EP041983 16.1000 -108.200 TS 55 0 16.0542 -108.264 2 52 12 313
1983187N12259 1983 30 EP MM DALILIA 1983-07-07 21:00:00 TS 16.4737 -108.687 main 507 507 P_________P___ EP041983 16.4774 -108.678 TS 57 0 16.4624 -108.715 2 56 12 311
1983187N12259 1983 30 EP MM DALILIA 1983-07-08 00:00:00 TS 16.9000 -109.200 60 hurdat_epa main 517 517 O_________O___ hurdat_epa EP041983 16.9000 -109.200 TS 60 0 16.9000 -109.200 2 60 14 314
1983187N12259 1983 30 EP MM DALILIA 1983-07-08 03:00:00 TS 17.4336 -109.730 main 529 529 P_________P___ EP041983 17.4424 -109.735 TS 60 0 17.4072 -109.714 2 60 15 316
1983187N12259 1983 30 EP MM DALILIA 1983-07-08 06:00:00 TS 17.9841 -110.292 60 hurdat_epa main 548 508 O_________P___ hurdat_epa EP041983 18.0000 -110.300 TS 60 0 17.9366 -110.267 2 60 15 314
1983187N12259 1983 30 EP MM DALILIA 1983-07-08 09:00:00 TS 18.4716 -110.868 main 500 470 P_________P___ EP041983 18.4796 -110.870 TS 60 0 18.4476 -110.861 2 60 15 309
1983187N12259 1983 30 EP MM DALILIA 1983-07-08 12:00:00 TS 18.9000 -111.500 60 hurdat_epa main 473 462 O_________O___ hurdat_epa EP041983 18.9000 -111.500 TS 60 0 18.9000 -111.500 2 60 15 302
1983187N12259 1983 30 EP MM DALILIA 1983-07-08 15:00:00 TS 19.2817 -112.225 main 462 462 P_________P___ EP041983 19.2875 -112.235 TS 57 0 19.2642 -112.195 2 57 16 296
1983187N12259 1983 30 EP MM DALILIA 1983-07-08 18:00:00 TS 19.5907 -112.982 55 hurdat_epa main 482 482 O_________P___ hurdat_epa EP041983 19.6000 -113.000 TS 55 0 19.5628 -112.928 2 55 15 291
1983187N12259 1983 30 EP MM DALILIA 1983-07-08 21:00:00 TS 19.8234 -113.699 main 516 516 P_________P___ EP041983 19.8296 -113.708 TS 52 0 19.8048 -113.673 2 52 14 287
1983187N12259 1983 30 EP MM DALILIA 1983-07-09 00:00:00 TS 20.0000 -114.400 50 hurdat_epa main 558 558 O_________O___ hurdat_epa EP041983 20.0000 -114.400 TS 50 0 20.0000 -114.400 2 50 14 285
1983187N12259 1983 30 EP MM DALILIA 1983-07-09 03:00:00 TS 20.1705 -115.106 main 588 588 P_________P___ EP041983 20.1649 -115.115 TS 47 0 20.1875 -115.080 2 48 13 283
1983187N12259 1983 30 EP MM DALILIA 1983-07-09 06:00:00 TS 20.3078 -115.785 45 hurdat_epa main 621 621 O_________P___ hurdat_epa EP041983 20.3000 -115.800 TS 45 0 20.3313 -115.738 2 47 12 282
1983187N12259 1983 30 EP MM DALILIA 1983-07-09 09:00:00 TS 20.4196 -116.406 main 652 652 P_________P___ EP041983 20.4146 -116.415 TS 45 0 20.4345 -116.377 2 46 12 280
1983187N12259 1983 30 EP MM DALILIA 1983-07-09 12:00:00 TS 20.5000 -117.000 45 hurdat_epa main 687 687 O_________O___ hurdat_epa EP041983 20.5000 -117.000 TS 45 0 20.5000 -117.000 2 45 11 277
1983187N12259 1983 30 EP MM DALILIA 1983-07-09 15:00:00 TS 20.5660 -117.604 main 725 725 P_________P___ EP041983 20.5723 -117.600 TS 42 0 20.5472 -117.615 2 42 11 275
1983187N12259 1983 30 EP MM DALILIA 1983-07-09 18:00:00 TS 20.5897 -118.204 40 hurdat_epa main 773 773 O_________P___ hurdat_epa EP041983 20.6000 -118.200 TS 40 0 20.5588 -118.215 2 40 11 270
1983187N12259 1983 30 EP MM DALILIA 1983-07-09 21:00:00 TS 20.5645 -118.802 main 823 823 P_________P___ EP041983 20.5723 -118.800 TS 37 0 20.5410 -118.808 2 37 11 265
1983187N12259 1983 30 EP MM DALILIA 1983-07-10 00:00:00 TS 20.5000 -119.400 35 hurdat_epa main 880 880 O_________O___ hurdat_epa EP041983 20.5000 -119.400 TS 35 0 20.5000 -119.400 2 35 11 262
1983187N12259 1983 30 EP MM DALILIA 1983-07-10 03:00:00 TS 20.4114 -120.004 main 939 939 P_________P___ EP041983 20.3998 -120.000 TS 32 -1 20.4463 -120.017 2 33 11 261
1983187N12259 1983 30 EP MM DALILIA 1983-07-10 06:00:00 TS 20.3181 -120.608 30 hurdat_epa main 995 995 O_________P___ hurdat_epa EP041983 20.3000 -120.600 TD 30 -1 20.3723 -120.630 2 32 11 262
1983187N12259 1983 30 EP MM DALILIA 1983-07-10 09:00:00 TS 20.2592 -121.213 main 1035 1035 P_________P___ EP041983 20.2499 -121.207 TD 30 -1 20.2870 -121.229 2 31 11 264
1983187N12259 1983 30 EP MM DALILIA 1983-07-10 12:00:00 TS 20.2000 -121.800 30 hurdat_epa main 1085 1085 O_________O___ hurdat_epa EP041983 20.2000 -121.800 TD 30 -1 20.2000 -121.800 1 30 11 262
1983187N12259 1983 30 EP MM DALILIA 1983-07-10 15:00:00 TS 20.1050 -122.365 main 1133 1133 P_________P___ EP041983 20.0999 -122.373 TD 30 -1 20.1203 -122.341 1 30 10 259
1983187N12259 1983 30 EP MM DALILIA 1983-07-10 18:00:00 TS 20.0104 -122.888 30 hurdat_epa main 1176 1176 O_________P___ hurdat_epa EP041983 20.0000 -122.900 TD 30 -1 20.0418 -122.852 1 30 9 260
1983187N12259 1983 30 EP MM DALILIA 1983-07-10 21:00:00 TS 19.9485 -123.358 main 1219 1219 P_________P___ EP041983 19.9423 -123.365 TD 30 -1 19.9673 -123.338 1 30 9 263
1983187N12259 1983 30 EP MM DALILIA 1983-07-11 00:00:00 TS 19.9000 -123.800 30 hurdat_epa main 1248 1248 O_________O___ hurdat_epa EP041983 19.9000 -123.800 TD 30 -1 19.9000 -123.800 1 30 8 263
1983187N12259 1983 30 EP MM DALILIA 1983-07-11 03:00:00 TS 19.8480 -124.252 main 1293 1293 P_________P___ EP041983 19.8499 -124.257 TD 27 -1 19.8420 -124.234 1 28 8 263
1983187N12259 1983 30 EP MM DALILIA 1983-07-11 06:00:00 TS 19.7979 -124.687 25 hurdat_epa main 1322 1322 O_________P___ hurdat_epa EP041983 19.8000 -124.700 TD 25 -1 19.7914 -124.650 1 27 8 263
1983187N12259 1983 30 EP MM DALILIA 1983-07-11 09:00:00 TS 19.7486 -125.086 main 1361 1361 P_________P___ EP041983 19.7498 -125.092 TD 25 -1 19.7452 -125.065 1 26 8 263
1983187N12259 1983 30 EP MM DALILIA 1983-07-11 12:00:00 TS 19.7000 -125.500 25 hurdat_epa main 1391 1391 O_________O___ hurdat_epa EP041983 19.7000 -125.500 TD 25 -1 19.7000 -125.500 1 25 8 263
1983187N12259 1983 30 EP MM DALILIA 1983-07-11 15:00:00 TS 19.6508 -125.981 main 1431 1431 P_________P___ EP041983 19.6500 -125.985 TD 25 -1 19.6532 -125.967 1 23 9 264
1983187N12259 1983 30 EP MM DALILIA 1983-07-11 18:00:00 TS 19.6010 -126.491 25 hurdat_epa main 1478 1478 O_________P___ hurdat_epa EP041983 19.6000 -126.500 TD 25 -1 19.6041 -126.463 1 22 10 264
1983187N12259 1983 30 EP MM DALILIA 1983-07-11 21:00:00 TS 19.5509 -126.998 main 1518 1518 P_________P___ EP041983 19.5502 -127.005 TD 22 -1 19.5530 -126.977 1 21 10 264
1983187N12259 1983 30 EP MM DALILIA 1983-07-12 00:00:00 TS 19.5000 -127.500 20 hurdat_epa main 1566 O_________O___ hurdat_epa EP041983 19.5000 -127.500 TD 20 -1 19.5000 -127.500 1 20 10 264

About IBTrACS Database

This database is a web-friendly format of International Best Track Archive for Climate Stewardship (IBTrACS), a global best track data archive curated by NOAA dating back to 1842.

Updated: 2021-12-03